Latest Coastal Weather Observations for Cape Moreton

IDQ60701

Issued at 12:45 pm EST Wednesday 3 September 2014 (issued every 10 minutes, with the page automatically refreshed every 10 minutes)

About coastal observations | Map of coastal stations | Coastal observations for QLD | Marine services | Other Formats
Station Details ID: 040043 Name: CAPE MORETON LIGHTHOUSE Lat: -27.03 Lon: 153.47 Height: 99.9 m
Data from the previous 72 hours. | See also: Recent months at Cape Moreton
Date/Time
EST
Temp

°C
Wind Pressure Rain
since 9am
mm
Weather Cloud Vis
km
Sea
Height
m
Swell
Dir
 
Speed
knots
Gust
knots
hPa Trend Height
m
Period
s
Dir
03/12:30pm 18.9 WSW 20 32 1010.2 - - - - - - - - -
03/12:00pm 18.4 W 19 29 1010.7 - - - - - - - - -
03/11:30am 17.8 W 17 29 1011.2 - - - - - - - - -
03/11:01am 17.3 W 15 25 1011.4 - - - - - - - - -
03/11:00am 17.2 W 16 25 1011.3 - - - - - - - - -
03/10:30am 16.5 W 17 27 1011.7 - - - - - - - - -
03/10:00am 16.0 W 23 35 1011.7 - - - - - - - - -
03/09:30am 15.8 W 19 32 1011.7 - - - - - - - - -
03/09:00am 15.0 W 24 34 1011.4 - - - - - - - - -
03/08:30am 14.7 W 23 36 1011.8 - - - - - - - - -
03/08:00am 14.1 WSW 22 34 1011.9 - - - - - - - - -
03/07:30am 13.8 WSW 19 29 1012.3 - - - - - - - - -
03/07:14am 13.7 WSW 17 27 1012.3 - - - - - - - - -
03/07:00am 13.5 WSW 17 26 1012.2 - - - - - - - - -
03/06:44am 13.3 WSW 15 25 1012.3 - - - - - - - - -
03/06:30am 13.0 WSW 15 22 1012.4 - - - - - - - - -
03/06:00am 13.0 WSW 14 20 1012.4 - - - - - - - - -
03/05:30am 13.0 WSW 15 22 1011.9 - - - - - - - - -
03/05:00am 13.1 WSW 17 24 1011.6 - - - - - - - - -
03/04:30am 13.1 WSW 14 20 1011.5 - - - - - - - - -
03/04:00am 13.2 WSW 13 19 1011.6 - - - - - - - - -
03/03:30am 13.5 WSW 13 19 1011.7 - - - - - - - - -
03/03:00am 14.1 WSW 16 23 1011.7 - - - - - - - - -
03/02:30am 14.3 WSW 16 23 1012.0 - - - - - - - - -
03/02:11am 14.5 WSW 17 27 1012.1 - - - - - - - - -
03/02:00am 14.6 WSW 18 27 1012.2 - - - - - - - - -
03/01:30am 14.9 WSW 19 30 1012.3 - - - - - - - - -
03/01:00am 15.2 WSW 18 28 1012.4 - - - - - - - - -
03/12:33am 15.7 WSW 22 32 1012.2 - - - - - - - - -
03/12:30am 15.7 WSW 23 32 1012.2 - - - - - - - - -
03/12:00am 16.1 WSW 19 31 1012.1 - - - - - - - - -
 
Date/Time
EST
Temp

°C
Wind Pressure Rain
since 9am
mm
Weather Cloud Vis
km
Sea
Height
m
Swell
Dir
 
Speed
knots
Gust
knots
hPa Trend Height
m
Period
s
Dir
02/11:35pm 16.5 WSW 22 35 1012.0 - - - - - - - - -
02/11:30pm 16.5 WSW 21 29 1012.0 - - - - - - - - -
02/11:00pm 16.9 WSW 23 33 1012.2 - - - - - - - - -
02/10:30pm 17.4 WSW 23 35 1011.7 - - - - - - - - -
02/10:08pm 17.4 WSW 19 29 1012.0 - - - - - - - - -
02/10:00pm 17.6 WSW 21 29 1011.8 - - - - - - - - -
02/09:30pm 18.1 WSW 25 36 1011.2 - - - - - - - - -
02/09:00pm 18.6 SW 25 39 1011.0 - - - - - - - - -
02/08:53pm 18.9 SW 23 39 1011.1 - - - - - - - - -
02/08:30pm 19.1 SW 16 26 1011.0 - - - - - - - - -
02/08:26pm 19.3 SW 15 26 1011.0 - - - - - - - - -
02/08:00pm 19.5 WSW 10 14 1011.0 - - - - - - - - -
02/07:30pm 20.1 WSW 10 14 1010.6 - - - - - - - - -
02/07:00pm 20.5 WSW 9 12 1010.2 - - - - - - - - -
02/06:30pm 21.2 WSW 10 15 1009.7 - - - - - - - - -
02/06:00pm 20.7 NW 18 25 1008.8 - - - - - - - - -
02/05:30pm 20.6 NNW 19 27 1008.2 - - - - - - - - -
02/05:27pm 20.6 NNW 17 27 1007.9 - - - - - - - - -
02/05:00pm 20.9 N 27 34 1007.1 - - - - - - - - -
02/04:30pm 20.7 N 28 35 1006.7 - - - - - - - - -
02/04:00pm 20.6 N 27 35 1006.6 - - - - - - - - -
02/03:30pm 20.7 N 27 33 1007.0 - - - - - - - - -
02/03:00pm 21.2 N 25 31 1007.5 - - - - - - - - -
02/02:30pm 21.5 N 22 29 1007.9 - - - - - - - - -
02/02:00pm 21.4 N 22 27 1008.5 - - - - - - - - -
02/01:30pm 21.3 N 19 23 1009.1 - - - - - - - - -
02/01:00pm 21.5 NNW 17 24 1009.7 - - - - - - - - -
02/12:30pm 21.3 NNW 13 20 1010.5 - - - - - - - - -
02/12:00pm 20.9 NNW 14 21 1011.2 - - - - - - - - -
02/11:30am 19.6 NNW 18 25 1011.5 - - - - - - - - -
02/11:00am 19.5 NNW 18 25 1011.9 - - - - - - - - -
02/10:30am 19.9 NNW 17 25 1012.8 - - - - - - - - -
02/10:00am 19.6 NNW 17 22 1013.4 - - - - - - - - -
02/09:30am 19.1 NNW 18 25 1013.8 - - - - - - - - -
02/09:00am 18.6 NNW 18 24 1014.1 - - - - - - - - -
02/08:30am 18.3 NNW 17 23 1014.4 - - - - - - - - -
02/08:00am 18.8 NNW 17 21 1014.9 - - - - - - - - -
02/07:30am 18.2 NNW 15 20 1014.9 - - - - - - - - -
02/07:00am 18.0 NNW 15 22 1014.5 - - - - - - - - -
02/06:30am 17.8 NW 16 22 1014.7 - - - - - - - - -
02/06:00am 17.5 NW 18 23 1014.6 - - - - - - - - -
02/05:30am 17.6 NW 14 20 1014.5 - - - - - - - - -
02/05:00am 17.6 NNW 17 23 1014.3 - - - - - - - - -
02/04:30am 17.7 NW 17 24 1014.4 - - - - - - - - -
02/04:00am 17.8 NW 19 25 1014.4 - - - - - - - - -
02/03:30am 17.9 NW 18 25 1014.3 - - - - - - - - -
02/03:00am 17.9 NNW 19 27 1014.4 - - - - - - - - -
02/02:55am 18.0 NNW 17 27 1014.4 - - - - - - - - -
02/02:30am 18.1 NW 18 25 1014.6 - - - - - - - - -
02/02:00am 18.1 NNW 19 26 1014.8 - - - - - - - - -
02/01:50am 18.1 NNW 18 28 1015.0 - - - - - - - - -
02/01:30am 18.3 NNW 19 26 1015.3 - - - - - - - - -
02/01:00am 18.2 NNW 18 24 1015.5 - - - - - - - - -
02/12:30am 18.3 NNW 19 25 1015.8 - - - - - - - - -
02/12:00am 18.5 NNW 17 21 1016.2 - - - - - - - - -
 
Date/Time
EST
Temp

°C
Wind Pressure Rain
since 9am
mm
Weather Cloud Vis
km
Sea
Height
m
Swell
Dir
 
Speed
knots
Gust
knots
hPa Trend Height
m
Period
s
Dir
01/11:30pm 18.7 NNW 17 22 1016.3 - - - - - - - - -
01/11:01pm 19.1 NNW 17 27 1016.1 - - - - - - - - -
01/11:00pm 19.3 NNW 18 27 1016.2 - - - - - - - - -
01/10:30pm 19.5 N 22 29 1016.3 - - - - - - - - -
01/10:00pm 19.6 N 20 27 1016.4 - - - - - - - - -
01/09:30pm 19.7 N 22 27 1016.6 - - - - - - - - -
01/09:00pm 19.8 N 21 27 1016.6 - - - - - - - - -
01/08:30pm 20.0 N 19 25 1016.7 - - - - - - - - -
01/08:00pm 19.9 N 19 25 1016.6 - - - - - - - - -
01/07:30pm 19.9 N 18 24 1016.5 - - - - - - - - -
01/07:00pm 19.8 N 18 24 1016.1 - - - - - - - - -
01/06:30pm 19.7 N 18 23 1015.8 - - - - - - - - -
01/06:00pm 19.7 NNE 18 23 1015.7 - - - - - - - - -
01/05:30pm 19.8 N 18 22 1015.8 - - - - - - - - -
01/05:00pm 19.7 NNE 16 21 1015.7 - - - - - - - - -
01/04:30pm 19.9 NNE 17 20 1015.4 - - - - - - - - -
01/04:00pm 20.3 NNE 15 19 1015.1 - - - - - - - - -
01/03:30pm 20.6 NNE 15 18 1015.5 - - - - - - - - -
01/03:00pm 21.1 NNE 13 17 1015.7 - - - - - - - - -
01/02:30pm 21.4 NNE 12 15 1015.9 - - - - - - - - -
01/02:00pm 21.6 NNE 11 15 1016.2 - - - - - - - - -
01/01:30pm 21.9 N 9 13 1016.8 - - - - - - - - -
01/01:00pm 22.5 N 9 12 1017.1 - - - - - - - - -
01/12:30pm 21.9 N 8 11 1017.3 - - - - - - - - -
01/12:00pm 21.8 NNE 7 11 1017.7 - - - - - - - - -
01/11:30am 21.5 NNE 7 9 1018.4 - - - - - - - - -
01/11:00am 20.1 NNW 6 9 1019.2 - - - - - - - - -
01/10:30am 20.4 NW 7 10 1019.6 - - - - - - - - -
01/10:00am 20.1 NW 7 9 1019.8 - - - - - - - - -
01/09:30am 20.2 WNW 5 8 1020.0 - - - - - - - - -
01/09:00am 19.3 W 7 10 1019.9 - - - - - - - - -
01/08:30am 18.9 W 6 7 1020.0 - - - - - - - - -
01/08:00am 18.2 W 4 6 1019.7 - - - - - - - - -
01/07:30am 17.2 WSW 6 6 1019.3 - - - - - - - - -
01/07:00am 16.6 WSW 6 8 1019.2 - - - - - - - - -
01/06:30am 16.2 WSW 8 9 1018.8 - - - - - - - - -
01/06:00am 16.2 W 7 7 1018.6 - - - - - - - - -
01/05:30am 15.7 SW 7 8 1018.3 - - - - - - - - -
01/05:00am 15.7 SW 8 9 1018.1 - - - - - - - - -
01/04:30am 15.7 WSW 9 11 1018.0 - - - - - - - - -
01/04:00am 15.8 WSW 10 12 1017.9 - - - - - - - - -
01/03:30am 16.0 W 10 12 1017.8 - - - - - - - - -
01/03:00am 16.1 W 10 11 1017.7 - - - - - - - - -
01/02:30am 17.2 W 5 6 1017.8 - - - - - - - - -
01/02:00am 17.1 W 7 8 1018.0 - - - - - - - - -
01/01:30am 17.4 ENE 5 5 1018.2 - - - - - - - - -
01/01:00am 17.2 ENE 4 5 1018.3 - - - - - - - - -
01/12:30am 17.4 ENE 4 4 1018.4 - - - - - - - - -
01/12:00am 18.1 ENE 2 3 1018.6 - - - - - - - - -
 
Date/Time
EST
Temp

°C
Wind Pressure Rain
since 9am
mm
Weather Cloud Vis
km
Sea
Height
m
Swell
Dir
 
Speed
knots
Gust
knots
hPa Trend Height
m
Period
s
Dir
31/11:30pm 17.9 ENE 3 5 1018.7 - - - - - - - - -
31/11:00pm 18.1 ESE 5 7 1018.7 - - - - - - - - -
31/10:30pm 18.0 ESE 5 7 1018.7 - - - - - - - - -
31/10:00pm 18.2 E 7 9 1018.6 - - - - - - - - -
31/09:30pm 18.3 ESE 9 11 1018.4 - - - - - - - - -
31/09:00pm 18.3 ESE 10 12 1018.4 - - - - - - - - -
31/08:30pm 18.4 ESE 11 13 1018.3 - - - - - - - - -
31/08:00pm 18.5 ESE 12 14 1018.2 - - - - - - - - -
31/07:30pm 18.5 ESE 12 14 1018.1 - - - - - - - - -
31/07:00pm 18.4 ESE 12 15 1017.8 - - - - - - - - -
31/06:30pm 18.6 ESE 14 16 1017.5 - - - - - - - - -
31/06:00pm 18.6 ESE 14 17 1017.1 - - - - - - - - -
31/05:30pm 18.8 ESE 14 17 1016.9 - - - - - - - - -
31/05:00pm 19.2 E 13 15 1016.8 - - - - - - - - -
31/04:30pm 19.2 ESE 13 15 1016.5 - - - - - - - - -
31/04:00pm 19.3 E 11 14 1016.3 - - - - - - - - -
31/03:30pm 19.5 E 11 13 1016.2 - - - - - - - - -
31/03:00pm 19.8 E 11 13 1016.2 - - - - - - - - -
31/02:30pm 20.1 ESE 11 13 1016.3 - - - - - - - - -
31/02:00pm 20.6 ESE 9 11 1016.3 - - - - - - - - -
31/01:30pm 20.9 ESE 9 10 1016.7 - - - - - - - - -
31/01:00pm 21.0 SE 9 11 1017.0 - - - - - - - - -

Other Formats:

Comma delimited format used in spreadsheet applications
http://www.bom.gov.au/fwo/IDQ60701/IDQ60701.94594.axf

JavaScript Object Notation format (JSON) in row-major order
http://www.bom.gov.au/fwo/IDQ60701/IDQ60701.94594.json